createdAt,value
2019-02-20T00:00:20.074Z,-1.40
2019-02-20T00:02:48.494Z,-1.40
2019-02-20T00:05:17.224Z,-1.40
2019-02-20T00:07:45.846Z,-1.50
2019-02-20T00:10:14.266Z,-1.50
2019-02-20T00:12:42.721Z,-1.60
2019-02-20T00:15:11.566Z,-1.50
2019-02-20T00:17:40.341Z,-1.50
2019-02-20T00:20:08.849Z,-1.50
2019-02-20T00:22:40.258Z,-1.60
2019-02-20T00:25:07.460Z,-1.60
2019-02-20T00:27:35.927Z,-1.60
2019-02-20T00:30:07.193Z,-1.60
2019-02-20T00:32:35.660Z,-1.60
2019-02-20T00:35:05.555Z,-1.60
2019-02-20T00:37:33.961Z,-1.60
2019-02-20T00:40:02.440Z,-1.70
2019-02-20T00:42:30.922Z,-1.70
2019-02-20T00:45:01.019Z,-1.80
2019-02-20T00:47:49.046Z,-1.90
2019-02-20T00:50:18.578Z,-1.80
2019-02-20T00:52:54.825Z,-1.80
2019-02-20T00:55:23.230Z,-1.80
2019-02-20T00:57:51.644Z,-1.80
2019-02-20T01:00:20.102Z,-1.80
2019-02-20T01:02:48.539Z,-1.80
2019-02-20T01:05:17.013Z,-1.80
2019-02-20T01:07:45.530Z,-1.80
2019-02-20T01:10:13.971Z,-1.80
2019-02-20T01:12:42.370Z,-1.90
2019-02-20T01:15:11.458Z,-1.90
2019-02-20T01:17:39.864Z,-1.90
2019-02-20T01:20:09.818Z,-1.90
2019-02-20T01:22:38.465Z,-1.90
2019-02-20T01:25:07.196Z,-1.90
2019-02-20T01:27:35.795Z,-1.90
2019-02-20T01:30:06.633Z,-1.90
2019-02-20T01:32:35.186Z,-1.90
2019-02-20T01:35:03.697Z,-1.90
2019-02-20T01:37:32.130Z,-1.90
2019-02-20T01:40:00.543Z,-1.90
2019-02-20T01:42:28.942Z,-2.00
2019-02-20T01:44:57.382Z,-2.00
2019-02-20T01:47:25.793Z,-2.00
2019-02-20T01:49:54.194Z,-1.90
2019-02-20T01:52:22.618Z,-1.90
2019-02-20T01:54:51.037Z,-1.80
2019-02-20T01:57:19.457Z,-1.80
2019-02-20T01:59:47.897Z,-1.90
2019-02-20T02:02:16.333Z,-1.80
2019-02-20T02:04:45.097Z,-1.90
2019-02-20T02:07:13.486Z,-1.90
2019-02-20T02:09:41.889Z,-1.90
2019-02-20T02:12:10.315Z,-1.80
2019-02-20T02:14:38.748Z,-1.80
2019-02-20T02:17:07.162Z,-1.80
2019-02-20T02:19:35.592Z,-1.90
2019-02-20T02:22:03.998Z,-1.80
2019-02-20T02:24:32.403Z,-1.80
2019-02-20T02:27:00.882Z,-1.80
2019-02-20T02:29:29.307Z,-1.90
2019-02-20T02:31:57.812Z,-1.90
2019-02-20T02:34:26.225Z,-1.90
2019-02-20T02:36:54.952Z,-1.90
2019-02-20T02:39:23.369Z,-1.80
2019-02-20T02:41:51.799Z,-1.90
2019-02-20T02:44:20.194Z,-1.90
2019-02-20T02:46:48.950Z,-1.90
2019-02-20T02:49:17.358Z,-1.90
2019-02-20T02:51:45.794Z,-1.90
2019-02-20T02:54:14.416Z,-1.90
2019-02-20T02:56:42.842Z,-1.70
2019-02-20T02:59:11.490Z,-1.80
2019-02-20T03:01:39.895Z,-1.80
2019-02-20T03:04:08.302Z,-1.70
2019-02-20T03:06:36.726Z,-1.70
2019-02-20T03:09:05.816Z,-1.80
2019-02-20T03:11:34.230Z,-1.80
2019-02-20T03:14:02.709Z,-1.70
2019-02-20T03:16:31.178Z,-1.70
2019-02-20T03:18:59.596Z,-1.60
2019-02-20T03:21:28.029Z,-1.70
2019-02-20T03:23:57.083Z,-1.60
2019-02-20T03:26:26.006Z,-1.70
2019-02-20T03:28:54.444Z,-1.60
2019-02-20T03:31:22.888Z,-1.60
2019-02-20T03:33:51.435Z,-1.50
2019-02-20T03:36:19.861Z,-1.40
2019-02-20T03:38:48.304Z,-1.40
2019-02-20T03:41:16.733Z,-1.40
2019-02-20T03:43:45.164Z,-1.30
2019-02-20T03:46:13.594Z,-1.20
2019-02-20T03:48:42.023Z,-1.20
2019-02-20T03:51:10.449Z,-1.20
2019-02-20T03:53:38.875Z,-1.20
2019-02-20T03:56:07.358Z,-1.20
2019-02-20T03:58:35.863Z,-1.20
2019-02-20T04:01:04.270Z,-1.10
2019-02-20T04:03:32.674Z,-1.10
2019-02-20T04:06:01.090Z,-1.10
2019-02-20T04:08:29.506Z,-1.10
2019-02-20T04:10:57.959Z,-1.00
2019-02-20T04:13:26.412Z,-1.10
2019-02-20T04:15:54.862Z,-1.00
2019-02-20T04:18:23.283Z,-1.00
2019-02-20T04:20:51.692Z,-1.00
2019-02-20T04:23:20.165Z,-1.00
2019-02-20T04:25:48.577Z,-1.00
2019-02-20T04:28:17.003Z,-0.90
2019-02-20T04:30:45.791Z,-0.90
2019-02-20T04:33:14.251Z,-0.90
2019-02-20T04:35:42.659Z,-0.90
2019-02-20T04:38:11.342Z,-0.90
2019-02-20T04:40:39.739Z,-0.90
2019-02-20T04:43:08.186Z,-0.90
2019-02-20T04:45:36.887Z,-0.90
2019-02-20T04:48:05.593Z,-1.00
2019-02-20T04:50:33.999Z,-1.00
2019-02-20T04:53:02.417Z,-0.90
2019-02-20T04:55:30.848Z,-0.90
2019-02-20T04:58:11.115Z,-0.90
2019-02-20T05:00:39.541Z,-1.00
2019-02-20T05:03:07.959Z,-1.00
2019-02-20T05:05:36.367Z,-1.00
2019-02-20T05:08:04.827Z,-1.00
2019-02-20T05:10:33.242Z,-0.90
2019-02-20T05:13:01.690Z,-0.80
2019-02-20T05:15:30.199Z,-0.80
2019-02-20T05:17:58.705Z,-0.70
2019-02-20T05:20:27.529Z,-0.80
2019-02-20T05:22:56.228Z,-0.70
2019-02-20T05:25:25.001Z,-0.70
2019-02-20T05:27:53.446Z,-0.60
2019-02-20T05:30:21.859Z,-0.60
2019-02-20T05:32:50.279Z,-0.70
2019-02-20T05:35:18.678Z,-0.60
2019-02-20T05:37:47.104Z,-0.60
2019-02-20T05:40:15.580Z,-0.60
2019-02-20T05:42:44.342Z,-0.60
2019-02-20T05:45:12.832Z,-0.50
2019-02-20T05:47:41.511Z,-0.60
2019-02-20T05:50:12.333Z,-0.70
2019-02-20T05:52:40.771Z,-0.60
2019-02-20T05:55:09.178Z,-0.60
2019-02-20T05:57:37.581Z,-0.50
2019-02-20T06:00:09.438Z,-0.50
2019-02-20T06:02:38.126Z,-0.50
2019-02-20T06:05:07.429Z,-0.50
2019-02-20T06:07:35.934Z,-0.50
2019-02-20T06:10:05.742Z,-0.50
2019-02-20T06:12:34.171Z,-0.50
2019-02-20T06:15:02.571Z,-0.50
2019-02-20T06:17:31.007Z,-0.50
2019-02-20T06:19:59.411Z,-0.50
2019-02-20T06:22:27.885Z,-0.60
2019-02-20T06:24:56.280Z,-0.60
2019-02-20T06:27:24.992Z,-0.70
2019-02-20T06:29:53.638Z,-0.70
2019-02-20T06:32:24.039Z,-0.70
2019-02-20T06:34:52.282Z,-0.70
2019-02-20T06:37:21.095Z,-0.80
2019-02-20T06:39:49.490Z,-0.80
2019-02-20T06:42:17.900Z,-0.80
2019-02-20T06:44:46.654Z,-0.80
2019-02-20T06:47:15.070Z,-0.90
2019-02-20T06:49:43.602Z,-0.90
2019-02-20T06:52:12.021Z,-0.90
2019-02-20T06:54:40.742Z,-0.90
2019-02-20T06:57:09.212Z,-0.90
2019-02-20T06:59:37.647Z,-0.90
2019-02-20T07:02:06.247Z,-0.80
2019-02-20T07:04:34.982Z,-0.90
2019-02-20T07:07:09.019Z,-1.00
2019-02-20T07:10:03.582Z,-0.90
2019-02-20T07:12:40.698Z,-0.80
2019-02-20T07:15:28.622Z,-0.70
2019-02-20T07:18:03.550Z,-0.60
2019-02-20T07:20:57.850Z,-0.50
2019-02-20T07:23:57.683Z,-0.50
2019-02-20T07:27:02.538Z,-0.30
2019-02-20T07:29:48.751Z,-0.20
2019-02-20T07:32:17.822Z,0.00
2019-02-20T07:34:46.272Z,0.10
2019-02-20T07:37:14.669Z,0.20
2019-02-20T07:39:43.459Z,0.30
2019-02-20T07:42:11.871Z,0.40
2019-02-20T07:44:40.292Z,0.50
2019-02-20T07:47:08.974Z,0.50
2019-02-20T07:49:37.366Z,0.50
2019-02-20T07:52:05.766Z,0.60
2019-02-20T07:54:34.295Z,0.70
2019-02-20T07:57:02.670Z,0.70
2019-02-20T07:59:31.469Z,0.80
2019-02-20T08:01:59.864Z,0.90
2019-02-20T08:04:28.305Z,1.00
2019-02-20T08:06:56.698Z,1.10
2019-02-20T08:09:25.413Z,1.30
2019-02-20T08:11:53.941Z,1.50
2019-02-20T08:14:22.372Z,1.70
2019-02-20T08:16:52.697Z,1.80
2019-02-20T08:19:21.928Z,2.10
2019-02-20T08:21:50.643Z,2.30
2019-02-20T08:24:19.036Z,2.60
2019-02-20T08:26:47.446Z,2.70
2019-02-20T08:29:15.873Z,2.70
2019-02-20T08:31:44.291Z,2.70
2019-02-20T08:34:12.706Z,2.70
2019-02-20T08:36:41.167Z,2.70
2019-02-20T08:39:09.843Z,2.60
2019-02-20T08:41:38.288Z,2.50
2019-02-20T08:44:06.746Z,2.80
2019-02-20T08:46:35.187Z,3.20
2019-02-20T08:49:03.630Z,3.90
2019-02-20T08:51:32.074Z,4.50
2019-02-20T08:54:00.487Z,5.50
2019-02-20T08:56:28.886Z,6.00
2019-02-20T08:58:57.602Z,6.80
2019-02-20T09:01:26.007Z,7.60
2019-02-20T09:03:54.431Z,8.20
2019-02-20T09:06:22.844Z,8.20
2019-02-20T09:08:51.487Z,8.50
2019-02-20T09:11:19.887Z,8.70
2019-02-20T09:13:48.318Z,9.40
2019-02-20T09:16:16.750Z,10.10
2019-02-20T09:18:45.166Z,10.00
2019-02-20T09:21:13.581Z,10.20
2019-02-20T09:23:42.280Z,10.10
2019-02-20T09:26:11.014Z,10.70
2019-02-20T09:28:39.488Z,10.80
2019-02-20T09:31:07.894Z,10.80
2019-02-20T09:33:36.418Z,11.00
2019-02-20T09:36:04.876Z,11.30
2019-02-20T09:38:33.386Z,12.00
2019-02-20T09:41:02.114Z,11.50
2019-02-20T09:43:30.510Z,12.40
2019-02-20T09:45:59.018Z,12.40
2019-02-20T09:48:27.472Z,12.60
2019-02-20T09:50:55.913Z,12.50
2019-02-20T09:53:24.431Z,12.50
2019-02-20T09:55:52.869Z,12.20
2019-02-20T09:58:21.399Z,12.30
2019-02-20T10:00:49.822Z,11.90
2019-02-20T10:03:19.088Z,11.80
2019-02-20T10:05:47.542Z,11.40
2019-02-20T10:08:15.975Z,11.40
2019-02-20T10:10:44.651Z,11.20
2019-02-20T10:13:13.388Z,10.90
2019-02-20T10:15:42.136Z,11.00
2019-02-20T10:18:12.147Z,10.60
2019-02-20T10:20:40.758Z,10.20
2019-02-20T10:23:09.231Z,10.20
2019-02-20T10:25:37.674Z,10.70
2019-02-20T10:28:06.483Z,11.20
2019-02-20T10:30:34.930Z,10.80
2019-02-20T10:33:03.357Z,10.80
2019-02-20T10:35:31.783Z,10.80
2019-02-20T10:38:00.540Z,11.30
2019-02-20T10:40:28.968Z,11.50
2019-02-20T10:42:57.521Z,11.70
2019-02-20T10:45:26.007Z,11.90
2019-02-20T10:47:54.525Z,12.00
2019-02-20T10:50:25.924Z,12.30
2019-02-20T10:52:54.388Z,11.80
2019-02-20T10:55:22.841Z,11.60
2019-02-20T10:57:51.302Z,11.10
2019-02-20T11:00:24.214Z,11.70
2019-02-20T11:02:51.613Z,12.40
2019-02-20T11:05:20.103Z,12.30
2019-02-20T11:07:48.961Z,13.10
2019-02-20T11:10:17.570Z,12.40
2019-02-20T11:15:33.844Z,11.70
2019-02-20T11:18:02.351Z,11.50
2019-02-20T11:20:31.139Z,11.80
2019-02-20T11:22:59.701Z,11.40
2019-02-20T11:25:28.179Z,11.50
2019-02-20T11:27:56.873Z,11.60
2019-02-20T11:30:26.674Z,11.50
2019-02-20T11:32:55.159Z,11.70
2019-02-20T11:35:23.636Z,11.60
2019-02-20T11:37:52.662Z,11.50
2019-02-20T11:40:21.119Z,10.90
2019-02-20T11:42:52.795Z,10.90
2019-02-20T11:45:21.603Z,10.90
2019-02-20T11:47:50.024Z,10.90
2019-02-20T11:50:23.619Z,10.70
2019-02-20T11:52:52.215Z,11.20
2019-02-20T11:55:20.731Z,10.40
2019-02-20T11:57:49.195Z,10.30
2019-02-20T12:00:18.786Z,10.40
2019-02-20T12:02:47.238Z,10.60
2019-02-20T12:05:15.685Z,10.30
2019-02-20T12:07:44.171Z,10.30
2019-02-20T12:10:15.345Z,10.20
2019-02-20T12:12:43.994Z,10.10
2019-02-20T12:15:12.991Z,10.60
2019-02-20T12:17:41.802Z,10.70
2019-02-20T12:20:10.689Z,10.80
2019-02-20T12:22:39.183Z,10.40
2019-02-20T12:25:09.182Z,10.30
2019-02-20T12:27:37.675Z,10.40
2019-02-20T12:30:13.311Z,10.40
2019-02-20T12:32:41.727Z,10.50
2019-02-20T12:35:10.387Z,10.20
2019-02-20T12:37:39.082Z,10.10
2019-02-20T12:40:09.124Z,10.30
2019-02-20T12:42:37.553Z,10.40
2019-02-20T12:45:07.799Z,10.90
2019-02-20T12:47:36.276Z,10.80
2019-02-20T12:50:07.811Z,10.50
2019-02-20T12:52:36.285Z,10.50
2019-02-20T12:55:06.051Z,10.50
2019-02-20T12:57:34.642Z,10.70
2019-02-20T13:00:03.988Z,11.10
2019-02-20T13:02:32.437Z,11.10
2019-02-20T13:05:01.268Z,11.00
2019-02-20T13:07:30.118Z,11.20
2019-02-20T13:09:58.819Z,11.50
2019-02-20T13:12:27.266Z,11.40
2019-02-20T13:14:55.962Z,11.50
2019-02-20T13:17:24.445Z,11.40
2019-02-20T13:19:53.126Z,11.70
2019-02-20T13:22:21.573Z,12.10
2019-02-20T13:24:50.039Z,12.10
2019-02-20T13:27:22.738Z,12.40
2019-02-20T13:29:48.617Z,12.90
2019-02-20T13:32:17.057Z,13.20
2019-02-20T13:34:45.530Z,12.20
2019-02-20T13:37:14.007Z,12.60
2019-02-20T13:39:42.712Z,12.60
2019-02-20T13:42:11.272Z,12.70
2019-02-20T13:44:40.337Z,12.80
2019-02-20T13:47:09.078Z,13.10
2019-02-20T13:49:37.713Z,12.70
2019-02-20T13:52:06.227Z,12.60
2019-02-20T13:54:35.648Z,12.80
2019-02-20T13:57:04.530Z,12.90
2019-02-20T13:59:33.809Z,13.30
2019-02-20T14:02:02.298Z,13.00
2019-02-20T14:04:30.928Z,13.00
2019-02-20T14:06:59.868Z,12.60
2019-02-20T14:09:28.813Z,12.10
2019-02-20T14:11:57.590Z,11.90
2019-02-20T14:14:26.050Z,11.90
2019-02-20T14:16:54.948Z,11.90
2019-02-20T14:19:23.467Z,11.70
2019-02-20T14:21:51.991Z,11.50
2019-02-20T14:24:20.527Z,11.20
2019-02-20T14:26:48.982Z,11.10
2019-02-20T14:29:17.639Z,11.10
2019-02-20T14:31:46.117Z,11.00
2019-02-20T14:34:14.964Z,11.10
2019-02-20T14:36:43.617Z,11.00
2019-02-20T14:39:12.081Z,10.90
2019-02-20T14:41:40.498Z,10.90
2019-02-20T14:44:09.050Z,10.90
2019-02-20T14:46:37.520Z,11.00
2019-02-20T14:49:06.062Z,11.20
2019-02-20T14:51:34.846Z,11.60
2019-02-20T14:54:03.296Z,11.50
2019-02-20T14:56:31.822Z,11.50
2019-02-20T14:59:00.598Z,11.60
2019-02-20T15:01:29.314Z,11.40
2019-02-20T15:03:57.887Z,11.50
2019-02-20T15:06:27.046Z,11.50
2019-02-20T15:08:55.482Z,11.20
2019-02-20T15:11:23.925Z,11.30
2019-02-20T15:13:54.980Z,11.30
2019-02-20T15:16:22.731Z,11.30
2019-02-20T15:18:51.226Z,11.20
2019-02-20T15:21:19.800Z,11.20
2019-02-20T15:23:48.646Z,11.30
2019-02-20T15:26:17.127Z,11.30
2019-02-20T15:28:45.542Z,11.10
2019-02-20T15:31:14.049Z,11.10
2019-02-20T15:33:42.563Z,11.10
2019-02-20T15:36:11.149Z,11.00
2019-02-20T15:38:39.958Z,10.90
2019-02-20T15:41:08.565Z,10.70
2019-02-20T15:43:37.056Z,10.60
2019-02-20T15:46:05.883Z,10.50
2019-02-20T15:48:34.554Z,10.50
2019-02-20T15:51:03.038Z,10.40
2019-02-20T15:53:31.503Z,10.20
2019-02-20T15:56:01.346Z,10.10
2019-02-20T15:58:30.127Z,10.00
2019-02-20T16:00:58.627Z,10.00
2019-02-20T16:03:27.152Z,9.80
2019-02-20T16:05:56.044Z,9.80
2019-02-20T16:08:24.532Z,9.70
2019-02-20T16:10:53.115Z,9.60
2019-02-20T16:13:21.838Z,9.50
2019-02-20T16:15:50.308Z,9.40
2019-02-20T16:18:20.020Z,9.20
2019-02-20T16:20:48.547Z,9.10
2019-02-20T16:23:17.992Z,9.00
2019-02-20T16:25:49.686Z,8.90
2019-02-20T16:28:18.614Z,8.70
2019-02-20T16:30:47.103Z,8.60
2019-02-20T16:33:15.646Z,8.30
2019-02-20T16:35:44.095Z,8.10
2019-02-20T16:38:12.593Z,8.00
2019-02-20T16:40:41.066Z,7.80
2019-02-20T16:43:09.525Z,7.60
2019-02-20T16:45:38.670Z,7.50
2019-02-20T16:48:07.259Z,7.30
2019-02-20T16:50:36.015Z,7.20
2019-02-20T16:53:04.595Z,7.00
2019-02-20T16:55:33.058Z,6.80
2019-02-20T16:58:01.549Z,6.70
2019-02-20T17:00:30.051Z,6.60
2019-02-20T17:02:58.598Z,6.40
2019-02-20T17:05:27.330Z,6.30
2019-02-20T17:07:55.875Z,6.20
2019-02-20T17:10:24.365Z,6.10
2019-02-20T17:12:52.817Z,6.00
2019-02-20T17:15:21.403Z,5.80
2019-02-20T17:17:50.242Z,5.70
2019-02-20T17:20:20.538Z,5.60
2019-02-20T17:22:49.110Z,5.60
2019-02-20T17:25:18.645Z,5.40
2019-02-20T17:27:47.087Z,5.30
2019-02-20T17:30:17.191Z,5.30
2019-02-20T17:32:46.197Z,5.20
2019-02-20T17:35:17.061Z,5.00
2019-02-20T17:37:45.986Z,4.90
2019-02-20T17:40:15.514Z,4.80
2019-02-20T17:42:43.948Z,4.70
2019-02-20T17:45:19.127Z,4.60
2019-02-20T17:47:47.914Z,4.50
2019-02-20T17:50:19.461Z,4.40
2019-02-20T17:52:47.891Z,4.40
2019-02-20T17:55:16.297Z,4.30
2019-02-20T17:57:44.712Z,4.10
2019-02-20T18:00:18.845Z,4.10
2019-02-20T18:02:47.285Z,3.90
2019-02-20T18:05:15.814Z,3.90
2019-02-20T18:07:49.663Z,3.80
2019-02-20T18:10:14.846Z,3.70
2019-02-20T18:12:43.247Z,3.60
2019-02-20T18:15:32.908Z,3.50
2019-02-20T18:18:01.680Z,3.50
2019-02-20T18:20:30.204Z,3.40
2019-02-20T18:22:59.986Z,3.30
2019-02-20T18:25:30.690Z,3.20
2019-02-20T18:27:59.675Z,3.20
2019-02-20T18:30:31.943Z,3.10
2019-02-20T18:33:00.539Z,2.90
2019-02-20T18:35:30.052Z,2.90
2019-02-20T18:37:58.517Z,2.80
2019-02-20T18:40:28.879Z,2.70
2019-02-20T18:42:58.968Z,2.70
2019-02-20T18:45:27.615Z,2.60
2019-02-20T18:47:56.101Z,2.50
2019-02-20T18:50:24.971Z,2.50
2019-02-20T18:52:53.501Z,2.50
2019-02-20T18:55:21.911Z,2.40
2019-02-20T18:57:50.379Z,2.40
2019-02-20T19:00:20.530Z,2.40
2019-02-20T19:02:49.171Z,2.30
2019-02-20T19:05:18.945Z,2.20
2019-02-20T19:07:47.687Z,2.20
2019-02-20T19:10:38.769Z,2.20
2019-02-20T19:13:10.265Z,2.10
2019-02-20T19:15:56.615Z,2.00
2019-02-20T19:18:43.083Z,1.90
2019-02-20T19:21:26.211Z,1.90
2019-02-20T19:24:15.553Z,1.80
2019-02-20T19:26:52.902Z,1.80
2019-02-20T19:29:48.429Z,1.80
2019-02-20T19:32:28.311Z,1.70
2019-02-20T19:35:25.578Z,1.70
2019-02-20T19:38:06.613Z,1.70
2019-02-20T19:40:52.257Z,1.70
2019-02-20T19:43:41.621Z,1.60
2019-02-20T19:46:45.138Z,1.60
2019-02-20T19:49:16.874Z,1.60
2019-02-20T19:52:06.349Z,1.60
2019-02-20T19:54:42.110Z,1.60
2019-02-20T19:57:30.374Z,1.60
2019-02-20T20:00:20.026Z,1.60
2019-02-20T20:03:15.645Z,1.60
2019-02-20T20:05:57.626Z,1.60
2019-02-20T20:08:55.241Z,1.60
2019-02-20T20:11:44.527Z,1.50
2019-02-20T20:14:13.543Z,1.50
2019-02-20T20:16:47.475Z,1.50
2019-02-20T20:19:21.703Z,1.40
2019-02-20T20:22:09.473Z,1.40
2019-02-20T20:24:44.067Z,1.30
2019-02-20T20:27:38.238Z,1.30
2019-02-20T20:30:32.548Z,1.20
2019-02-20T20:33:20.773Z,1.20
2019-02-20T20:36:08.834Z,1.20
2019-02-20T20:39:15.214Z,1.20
2019-02-20T20:41:52.666Z,1.10
2019-02-20T20:44:32.937Z,1.00
2019-02-20T20:47:10.492Z,1.00
2019-02-20T20:49:54.105Z,1.00
2019-02-20T20:52:53.061Z,0.90
2019-02-20T20:55:45.526Z,0.80
2019-02-20T20:58:31.782Z,0.70
2019-02-20T21:01:25.584Z,0.70
2019-02-20T21:04:09.198Z,0.70
2019-02-20T21:06:55.878Z,0.60
2019-02-20T21:09:33.461Z,0.50
2019-02-20T21:12:10.774Z,0.50
2019-02-20T21:14:45.254Z,0.50
2019-02-20T21:17:28.799Z,0.40
2019-02-20T21:20:22.911Z,0.40
2019-02-20T21:23:15.274Z,0.40
2019-02-20T21:26:01.437Z,0.30
2019-02-20T21:28:51.056Z,0.30
2019-02-20T21:31:45.615Z,0.30
2019-02-20T21:34:22.892Z,0.20
2019-02-20T21:37:09.359Z,0.20
2019-02-20T21:39:46.953Z,0.20
2019-02-20T21:42:39.486Z,0.20
2019-02-20T21:45:17.295Z,0.10
2019-02-20T21:47:48.840Z,0.20
2019-02-20T21:50:37.638Z,0.10
2019-02-20T21:53:24.240Z,0.10
2019-02-20T21:56:10.490Z,0.10
2019-02-20T21:58:45.273Z,0.10
2019-02-20T22:01:46.927Z,0.10
2019-02-20T22:04:30.174Z,0.10
2019-02-20T22:07:22.127Z,0.00
2019-02-20T22:10:19.600Z,0.00
2019-02-20T22:12:54.207Z,-0.10
2019-02-20T22:15:31.605Z,0.00
2019-02-20T22:18:03.082Z,0.00
2019-02-20T22:20:46.502Z,-0.10
2019-02-20T22:23:40.335Z,-0.10
2019-02-20T22:26:14.688Z,-0.10
2019-02-20T22:28:49.131Z,-0.20
2019-02-20T22:31:23.339Z,-0.10
2019-02-20T22:33:57.906Z,-0.20
2019-02-20T22:36:29.417Z,-0.20
2019-02-20T22:39:13.020Z,-0.30
2019-02-20T22:42:01.325Z,-0.30
2019-02-20T22:44:41.514Z,-0.30
2019-02-20T22:47:18.626Z,-0.30
2019-02-20T22:50:01.910Z,-0.30
2019-02-20T22:52:36.337Z,-0.30
2019-02-20T22:55:22.408Z,-0.30
2019-02-20T22:57:59.609Z,-0.30
2019-02-20T23:01:04.401Z,-0.40
2019-02-20T23:03:55.698Z,-0.40
2019-02-20T23:06:36.497Z,-0.50
2019-02-20T23:09:29.010Z,-0.50
2019-02-20T23:12:03.477Z,-0.40
2019-02-20T23:14:44.117Z,-0.50
2019-02-20T23:17:12.547Z,-0.50
2019-02-20T23:19:40.978Z,-0.50
2019-02-20T23:22:09.642Z,-0.50
2019-02-20T23:24:38.055Z,-0.60
2019-02-20T23:27:06.530Z,-0.60
2019-02-20T23:29:34.998Z,-0.50
2019-02-20T23:32:03.381Z,-0.60
2019-02-20T23:34:31.885Z,-0.50
2019-02-20T23:37:00.432Z,-0.60
2019-02-20T23:39:28.847Z,-0.60
2019-02-20T23:41:57.260Z,-0.60
2019-02-20T23:44:25.906Z,-0.60
2019-02-20T23:46:54.357Z,-0.70
2019-02-20T23:49:22.831Z,-0.70
2019-02-20T23:51:51.522Z,-0.80
2019-02-20T23:54:20.181Z,-0.80
2019-02-20T23:56:48.598Z,-0.70
2019-02-20T23:59:17.070Z,-0.70
